Time;durP1;ratioP1;P1;durP2;ratioP2;P2;SDS_P1;SDS_P2;PMS_P1;PMS_P2;Temp;Humidity;BMP_temperature;BMP_pressure;BME280_temperature;BME280_humidity;BME280_pressure;Samples;Min_cycle;Max_cycle;Signal;HPM_P1;HPM_P2
2022/06/20 00:01:05;;;;;;;15.70;11.73;;;26.90;78.20;;;;;;5137218;27;20489;-67
2022/06/20 00:03:36;;;;;;;14.50;11.73;;;26.90;78.60;;;;;;5137050;27;20438;-67
2022/06/20 00:06:03;;;;;;;12.57;11.27;;;26.80;79.40;;;;;;5137759;27;20438;-67
2022/06/20 00:08:30;;;;;;;14.57;10.97;;;26.80;80.10;;;;;;5137110;27;20469;-67
2022/06/20 00:10:57;;;;;;;14.17;11.17;;;26.80;80.60;;;;;;5137012;27;20497;-67
2022/06/20 00:13:26;;;;;;;12.50;11.20;;;26.80;81.60;;;;;;5136665;27;20481;-67
2022/06/20 00:15:56;;;;;;;13.43;12.23;;;26.80;81.60;;;;;;5137100;27;20478;-67
2022/06/20 00:18:24;;;;;;;12.97;11.50;;;26.80;82.00;;;;;;5136919;27;20434;-68
2022/06/20 00:20:50;;;;;;;13.17;10.90;;;26.80;82.40;;;;;;5136668;27;20843;-67
2022/06/20 00:23:17;;;;;;;14.63;11.33;;;26.70;82.40;;;;;;5136730;27;20804;-67
2022/06/20 00:25:44;;;;;;;12.87;11.57;;;26.70;82.80;;;;;;5136844;27;20470;-67
2022/06/20 00:28:12;;;;;;;13.50;11.47;;;26.60;83.10;;;;;;5136628;27;20466;-67
2022/06/20 00:30:40;;;;;;;13.57;12.27;;;26.50;83.30;;;;;;5136282;27;21006;-67
2022/06/20 00:33:09;;;;;;;12.30;11.20;;;26.40;84.00;;;;;;5136474;27;20439;-67
2022/06/20 00:35:37;;;;;;;12.60;11.20;;;26.40;84.60;;;;;;5136435;27;20917;-67
2022/06/20 00:38:05;;;;;;;12.90;11.13;;;26.40;84.60;;;;;;5136538;27;20493;-67
2022/06/20 00:40:36;;;;;;;15.10;11.73;;;26.40;84.80;;;;;;5136549;27;20474;-67
2022/06/20 00:43:05;;;;;;;13.73;11.53;;;26.30;84.90;;;;;;5136324;27;20483;-67
2022/06/20 00:45:37;;;;;;;12.57;11.30;;;26.30;85.40;;;;;;5136363;27;20477;-67
2022/06/20 00:48:11;;;;;;;12.50;11.30;;;26.30;86.00;;;;;;5136359;27;20438;-67
2022/06/20 00:50:38;;;;;;;27.67;12.00;;;26.30;86.30;;;;;;5135562;27;20505;-67
2022/06/20 00:53:12;;;;;;;13.13;11.83;;;26.20;86.40;;;;;;5135894;27;20454;-67
2022/06/20 00:55:44;;;;;;;14.90;11.50;;;26.20;86.80;;;;;;5136244;27;20429;-67
2022/06/20 00:58:14;;;;;;;12.80;11.60;;;26.20;87.30;;;;;;5136164;27;20443;-67
2022/06/20 01:00:42;;;;;;;13.17;11.90;;;26.20;87.80;;;;;;5135854;27;20470;-67
2022/06/20 01:03:14;;;;;;;12.73;11.50;;;26.20;87.90;;;;;;5135671;27;20866;-67
2022/06/20 01:05:48;;;;;;;13.93;12.37;;;26.10;87.70;;;;;;5135952;27;20435;-67
2022/06/20 01:08:21;;;;;;;12.90;11.50;;;26.20;88.00;;;;;;5135762;27;20499;-67
2022/06/20 01:10:52;;;;;;;16.07;11.40;;;26.10;88.50;;;;;;5135789;27;20510;-67
2022/06/20 01:13:21;;;;;;;17.07;15.13;;;26.10;92.40;;;;;;5135522;27;20916;-67
2022/06/20 01:15:51;;;;;;;17.97;15.23;;;25.80;98.10;;;;;;5135509;27;20979;-67
2022/06/20 01:18:21;;;;;;;17.50;14.63;;;25.50;99.90;;;;;;5135658;27;20456;-67
2022/06/20 01:20:51;;;;;;;17.80;16.07;;;25.10;99.90;;;;;;5135663;27;20837;-67
2022/06/20 01:23:28;;;;;;;16.47;14.97;;;24.90;99.90;;;;;;5135531;27;20526;-67
2022/06/20 01:26:21;;;;;;;16.83;15.13;;;24.70;99.90;;;;;;5135638;27;20480;-67
2022/06/20 01:28:56;;;;;;;19.13;16.57;;;24.60;99.90;;;;;;5135553;27;20815;-67
2022/06/20 01:31:25;;;;;;;18.30;15.00;;;24.50;99.90;;;;;;5135391;27;20483;-67
2022/06/20 01:33:53;;;;;;;17.03;15.20;;;24.40;99.90;;;;;;5135394;27;20483;-67
2022/06/20 01:39:07;;;;;;;17.50;15.70;;;24.30;99.90;;;;;;5135351;27;20414;-67
2022/06/20 01:44:22;;;;;;;18.63;15.20;;;24.00;99.90;;;;;;5135110;27;20783;-67
2022/06/20 01:46:49;;;;;;;15.60;14.20;;;23.90;99.90;;;;;;5135250;27;20475;-67
2022/06/20 01:49:20;;;;;;;16.80;15.00;;;23.80;99.90;;;;;;5135035;27;20476;-67
2022/06/20 01:51:52;;;;;;;16.33;14.63;;;23.80;99.90;;;;;;5134924;27;20467;-67
2022/06/20 01:54:21;;;;;;;17.00;14.90;;;23.70;99.90;;;;;;5134739;27;20457;-67
2022/06/20 01:56:50;;;;;;;16.13;14.53;;;23.70;99.90;;;;;;5135105;27;20435;-67
2022/06/20 01:59:23;;;;;;;15.10;13.60;;;23.70;99.90;;;;;;5134903;27;20470;-66
2022/06/20 02:01:52;;;;;;;16.03;13.90;;;23.60;99.90;;;;;;5134071;27;20470;-67
2022/06/20 02:04:23;;;;;;;19.47;14.50;;;23.60;99.90;;;;;;5134945;27;20553;-67
2022/06/20 02:06:52;;;;;;;18.07;14.80;;;23.60;99.90;;;;;;5135199;27;20781;-67
2022/06/20 02:09:19;;;;;;;16.63;13.97;;;23.50;99.90;;;;;;5134675;27;20945;-67
2022/06/20 02:11:48;;;;;;;16.07;14.13;;;23.40;99.90;;;;;;5134871;27;20506;-67
2022/06/20 02:14:19;;;;;;;16.27;14.57;;;23.40;99.90;;;;;;5134896;27;20467;-67
2022/06/20 02:16:50;;;;;;;16.43;14.57;;;23.40;99.90;;;;;;5134918;27;20482;-67
2022/06/20 02:19:24;;;;;;;19.20;14.63;;;23.40;99.90;;;;;;5134523;27;20944;-67
2022/06/20 02:21:53;;;;;;;16.70;14.90;;;23.40;99.90;;;;;;5134676;27;20463;-67
2022/06/20 02:24:24;;;;;;;17.03;15.27;;;23.40;99.90;;;;;;5134394;27;20469;-67
2022/06/20 02:26:54;;;;;;;16.13;14.43;;;23.40;99.90;;;;;;5134663;27;20523;-67
2022/06/20 02:29:23;;;;;;;16.20;14.57;;;23.50;99.90;;;;;;5134596;27;20849;-66
2022/06/20 02:31:55;;;;;;;17.10;15.27;;;23.50;99.90;;;;;;5134572;27;20493;-66
2022/06/20 02:34:25;;;;;;;16.40;14.83;;;23.50;99.90;;;;;;5134412;27;20435;-67
2022/06/20 02:36:53;;;;;;;15.60;14.30;;;23.40;99.90;;;;;;5134477;27;20442;-66
2022/06/20 02:39:21;;;;;;;16.57;13.97;;;23.40;99.90;;;;;;5134704;27;20475;-67
2022/06/20 02:41:53;;;;;;;16.13;14.30;;;23.40;99.90;;;;;;5134538;27;20540;-67
2022/06/20 02:44:23;;;;;;;16.67;14.90;;;23.40;99.90;;;;;;5134402;27;20856;-67
2022/06/20 02:46:54;;;;;;;19.13;14.60;;;23.50;99.90;;;;;;5134532;27;20440;-67
2022/06/20 02:49:25;;;;;;;15.63;14.03;;;23.50;99.90;;;;;;5134469;27;20526;-67
2022/06/20 02:51:55;;;;;;;15.60;14.03;;;23.50;99.90;;;;;;5134135;27;20460;-67
2022/06/20 02:54:25;;;;;;;19.00;15.53;;;23.50;99.90;;;;;;5133940;27;20453;-67
2022/06/20 02:56:58;;;;;;;19.77;15.40;;;23.20;99.90;;;;;;5134183;27;20476;-68
2022/06/20 02:59:29;;;;;;;19.97;15.60;;;22.80;99.90;;;;;;5134357;27;20438;-67
2022/06/20 03:02:04;;;;;;;18.23;15.77;;;22.50;99.90;;;;;;5134144;27;20498;-67
2022/06/20 03:04:34;;;;;;;17.40;14.50;;;22.30;99.90;;;;;;5134303;27;20441;-67
2022/06/20 03:07:04;;;;;;;17.37;14.80;;;22.20;99.90;;;;;;5134344;27;20434;-67
2022/06/20 03:09:34;;;;;;;20.10;13.80;;;22.20;99.90;;;;;;5134180;27;20442;-67
2022/06/20 03:12:02;;;;;;;16.10;14.37;;;22.30;99.90;;;;;;5134094;27;20462;-67
2022/06/20 03:14:36;;;;;;;18.07;13.67;;;22.30;99.90;;;;;;5137935;27;20529;-67
2022/06/20 03:17:05;;;;;;;16.10;13.40;;;22.30;99.90;;;;;;5138230;27;20804;-67
2022/06/20 03:19:36;;;;;;;15.30;12.90;;;22.40;99.90;;;;;;5138599;27;20477;-68
2022/06/20 03:22:19;;;;;;;15.17;13.57;;;22.40;99.90;;;;;;5138457;27;20975;-67
2022/06/20 03:24:47;;;;;;;14.60;13.20;;;22.40;99.90;;;;;;5138274;27;20465;-68
2022/06/20 03:27:24;;;;;;;16.70;13.13;;;22.40;99.90;;;;;;5138673;27;20484;-68
2022/06/20 03:29:54;;;;;;;13.20;11.73;;;22.40;99.90;;;;;;5138550;27;20446;-67
2022/06/20 03:32:24;;;;;;;13.13;11.87;;;22.20;99.90;;;;;;5137870;27;20461;-67
2022/06/20 03:34:51;;;;;;;17.97;13.50;;;22.20;99.90;;;;;;5137634;27;20970;-67
2022/06/20 03:37:19;;;;;;;17.30;12.70;;;22.20;99.90;;;;;;5137724;27;20474;-67
2022/06/20 03:39:48;;;;;;;16.80;13.00;;;22.30;99.90;;;;;;5137669;27;20520;-67
2022/06/20 03:42:16;;;;;;;19.93;15.03;;;22.20;99.90;;;;;;5137485;27;20462;-67
2022/06/20 03:44:49;;;;;;;15.83;14.23;;;22.10;99.90;;;;;;5137379;27;20473;-67
2022/06/20 03:47:21;;;;;;;18.93;16.87;;;22.20;99.90;;;;;;5137407;27;20439;-67
2022/06/20 03:49:55;;;;;;;22.73;15.80;;;22.00;99.90;;;;;;5137723;27;20469;-67
2022/06/20 03:52:25;;;;;;;24.80;16.03;;;21.90;99.90;;;;;;5137074;27;20494;-67
2022/06/20 03:54:59;;;;;;;19.60;16.23;;;21.80;99.90;;;;;;5137461;27;20449;-67
2022/06/20 03:57:31;;;;;;;20.70;15.90;;;21.80;99.90;;;;;;5137383;27;20445;-67
2022/06/20 04:00:05;;;;;;;19.77;16.77;;;21.70;99.90;;;;;;5137377;27;20460;-67
2022/06/20 04:02:36;;;;;;;21.87;15.67;;;21.80;99.90;;;;;;5136837;27;20472;-67
2022/06/20 04:05:11;;;;;;;18.17;16.23;;;21.80;99.90;;;;;;5137210;27;20485;-67
2022/06/20 04:07:43;;;;;;;23.87;17.67;;;21.80;99.90;;;;;;5137616;27;20469;-67
2022/06/20 04:13:05;;;;;;;21.47;14.93;;;21.80;99.90;;;;;;5136741;27;20445;-68
2022/06/20 04:15:38;;;;;;;17.00;15.30;;;21.80;99.90;;;;;;5137080;27;20492;-67
2022/06/20 04:21:02;;;;;;;16.33;14.50;;;21.80;99.90;;;;;;5136809;27;20414;-68
2022/06/20 04:23:36;;;;;;;16.63;14.33;;;21.70;99.90;;;;;;5136333;27;20472;-67
2022/06/20 04:26:08;;;;;;;18.70;14.87;;;21.80;99.90;;;;;;5136419;27;20444;-67
2022/06/20 04:28:39;;;;;;;17.83;14.50;;;21.80;99.90;;;;;;5136788;27;20478;-67
2022/06/20 04:31:15;;;;;;;16.73;14.50;;;21.80;99.90;;;;;;5136640;27;20568;-67
2022/06/20 04:33:48;;;;;;;16.63;15.00;;;21.80;99.90;;;;;;5136568;27;20479;-67
2022/06/20 04:36:27;;;;;;;15.93;14.23;;;21.80;99.90;;;;;;5136649;27;20840;-68
2022/06/20 04:39:02;;;;;;;17.47;14.60;;;21.80;99.90;;;;;;5136583;27;20502;-68
2022/06/20 04:41:39;;;;;;;15.90;14.40;;;21.70;99.90;;;;;;5136451;27;20471;-68
2022/06/20 04:44:14;;;;;;;16.47;14.87;;;21.60;99.90;;;;;;5136036;27;20448;-68
2022/06/20 04:46:47;;;;;;;15.20;13.60;;;21.70;99.90;;;;;;5136296;27;20444;-68
2022/06/20 04:49:16;;;;;;;24.33;19.47;;;21.80;99.90;;;;;;5136347;27;20854;-68
2022/06/20 04:51:48;;;;;;;15.20;13.67;;;21.80;99.90;;;;;;5136141;27;20514;-68
2022/06/20 04:54:19;;;;;;;17.23;15.43;;;21.80;99.90;;;;;;5135943;27;20542;-68
2022/06/20 04:56:47;;;;;;;15.50;14.00;;;21.70;99.90;;;;;;5136210;27;20445;-68
2022/06/20 04:59:18;;;;;;;15.57;13.87;;;21.60;99.90;;;;;;5136076;27;20493;-68
2022/06/20 05:01:46;;;;;;;17.40;15.10;;;21.60;99.90;;;;;;5136098;27;20489;-68
2022/06/20 05:04:25;;;;;;;17.73;15.77;;;21.50;99.90;;;;;;5135712;27;20440;-68
2022/06/20 05:06:56;;;;;;;17.20;14.23;;;21.30;99.90;;;;;;5136016;27;20446;-68
2022/06/20 05:09:29;;;;;;;15.40;14.00;;;21.30;99.90;;;;;;5135830;27;20532;-68
2022/06/20 05:12:06;;;;;;;16.07;14.37;;;21.30;99.90;;;;;;5135863;27;20484;-68
2022/06/20 05:14:40;;;;;;;16.40;14.00;;;21.30;99.90;;;;;;5135903;27;20433;-68
2022/06/20 05:17:15;;;;;;;16.53;14.80;;;21.40;99.90;;;;;;5135998;27;20452;-68
2022/06/20 05:19:46;;;;;;;17.63;15.87;;;21.60;99.90;;;;;;5135760;27;20437;-68
2022/06/20 05:22:20;;;;;;;18.40;15.17;;;21.70;99.90;;;;;;5135577;27;20469;-68
2022/06/20 05:24:48;;;;;;;15.87;14.23;;;21.80;99.90;;;;;;5135666;27;20458;-68
2022/06/20 05:27:21;;;;;;;19.23;16.50;;;21.90;99.90;;;;;;5135595;27;20448;-68
2022/06/20 05:29:50;;;;;;;16.30;14.30;;;21.90;99.90;;;;;;5135491;27;20924;-68
2022/06/20 05:32:23;;;;;;;16.87;14.57;;;21.90;99.90;;;;;;5135048;27;20570;-68
2022/06/20 05:34:56;;;;;;;18.93;14.67;;;22.00;99.90;;;;;;5135927;27;20462;-68
2022/06/20 05:37:31;;;;;;;14.50;13.10;;;22.00;99.90;;;;;;5136018;27;20480;-68
2022/06/20 05:40:05;;;;;;;16.03;13.60;;;22.10;99.90;;;;;;5135453;27;20466;-68
2022/06/20 05:42:32;;;;;;;16.57;14.97;;;22.10;99.90;;;;;;5134972;27;20502;-68
2022/06/20 05:44:58;;;;;;;14.37;12.97;;;22.00;99.90;;;;;;5135190;27;20481;-68
2022/06/20 05:47:29;;;;;;;18.00;14.07;;;22.00;99.90;;;;;;5135236;27;20446;-68
2022/06/20 05:50:01;;;;;;;19.47;14.33;;;21.90;99.90;;;;;;5135218;27;20470;-68
2022/06/20 05:52:30;;;;;;;14.60;13.10;;;21.90;99.90;;;;;;5134831;27;20486;-68
2022/06/20 05:55:03;;;;;;;15.40;13.90;;;22.00;99.90;;;;;;5135213;27;20422;-68
2022/06/20 05:57:31;;;;;;;16.47;13.90;;;22.00;99.90;;;;;;5135091;27;20473;-68
2022/06/20 06:00:04;;;;;;;16.80;14.97;;;22.10;99.90;;;;;;5135019;27;20512;-68
2022/06/20 06:02:40;;;;;;;15.10;13.60;;;22.10;99.90;;;;;;5134533;27;20999;-68
2022/06/20 06:05:15;;;;;;;13.60;12.40;;;22.10;99.90;;;;;;5134764;27;20496;-68
2022/06/20 06:07:47;;;;;;;17.10;15.20;;;22.10;99.90;;;;;;5134681;27;20916;-68
2022/06/20 06:10:30;;;;;;;15.33;13.80;;;22.00;99.90;;;;;;5134922;27;20856;-68
2022/06/20 06:13:06;;;;;;;16.70;12.43;;;22.00;99.90;;;;;;5134692;27;20509;-68
2022/06/20 06:15:39;;;;;;;12.93;11.53;;;22.00;99.90;;;;;;5134806;27;20438;-67
2022/06/20 06:18:11;;;;;;;16.50;11.63;;;22.00;99.90;;;;;;5134743;27;20469;-68
2022/06/20 06:20:38;;;;;;;13.00;11.80;;;22.00;99.90;;;;;;5134523;27;20481;-68
2022/06/20 06:23:09;;;;;;;13.60;12.20;;;22.00;99.90;;;;;;5134527;27;20489;-68
2022/06/20 06:25:38;;;;;;;17.07;13.70;;;22.00;99.90;;;;;;5134768;27;20462;-67
2022/06/20 06:28:08;;;;;;;14.43;12.60;;;22.00;99.90;;;;;;5134487;27;20431;-68
2022/06/20 06:30:40;;;;;;;14.00;12.70;;;22.00;99.90;;;;;;5134464;27;20437;-68
2022/06/20 06:33:20;;;;;;;13.87;12.47;;;22.10;99.90;;;;;;5134197;27;20444;-68
2022/06/20 06:35:51;;;;;;;15.53;12.57;;;22.00;99.90;;;;;;5134633;27;20434;-68
2022/06/20 06:38:26;;;;;;;14.40;12.90;;;22.10;99.90;;;;;;5134660;27;20948;-68
2022/06/20 06:40:55;;;;;;;14.97;13.40;;;22.10;99.90;;;;;;5134486;27;20460;-67
2022/06/20 06:43:27;;;;;;;16.90;13.83;;;22.20;99.90;;;;;;5134061;27;20452;-68
2022/06/20 06:45:57;;;;;;;14.83;13.40;;;22.30;99.90;;;;;;5134526;27;20446;-68
2022/06/20 06:48:29;;;;;;;15.93;14.37;;;22.50;99.90;;;;;;5136964;27;20442;-68
2022/06/20 06:51:02;;;;;;;15.63;14.20;;;22.60;99.90;;;;;;5138499;27;20467;-67
2022/06/20 06:53:36;;;;;;;17.40;15.60;;;22.70;99.90;;;;;;5138092;27;20457;-67
2022/06/20 06:56:12;;;;;;;24.67;16.77;;;22.80;99.90;;;;;;5138336;27;20935;-67
2022/06/20 06:58:46;;;;;;;16.70;15.10;;;22.60;99.90;;;;;;5138566;27;20470;-67
2022/06/20 07:01:17;;;;;;;20.17;15.90;;;22.70;99.90;;;;;;5138333;27;20491;-67
2022/06/20 07:03:49;;;;;;;19.10;17.10;;;22.50;99.90;;;;;;5138304;27;20951;-68
2022/06/20 07:06:21;;;;;;;18.50;16.30;;;22.40;99.90;;;;;;5138725;27;20470;-67
2022/06/20 07:08:54;;;;;;;20.03;16.50;;;22.50;99.90;;;;;;5138201;27;20434;-68
2022/06/20 07:11:24;;;;;;;17.63;15.83;;;22.60;99.90;;;;;;5138009;27;20486;-68
2022/06/20 07:14:00;;;;;;;20.13;16.83;;;22.70;99.90;;;;;;5138107;27;20470;-67
2022/06/20 07:16:31;;;;;;;19.43;16.87;;;22.70;99.90;;;;;;5138198;27;20469;-67
2022/06/20 07:19:00;;;;;;;19.77;18.07;;;22.80;99.90;;;;;;5137863;27;20478;-67
2022/06/20 07:21:30;;;;;;;20.53;18.37;;;22.70;99.90;;;;;;5137924;27;20486;-67
2022/06/20 07:24:00;;;;;;;18.47;16.57;;;22.70;99.90;;;;;;5137706;27;20447;-67
2022/06/20 07:26:33;;;;;;;21.63;17.63;;;22.90;99.90;;;;;;5137894;27;20488;-67
2022/06/20 07:29:04;;;;;;;19.03;16.30;;;22.90;99.90;;;;;;5137924;27;20438;-67
2022/06/20 07:31:35;;;;;;;18.27;16.40;;;23.00;99.90;;;;;;5137540;27;20516;-67
2022/06/20 07:34:09;;;;;;;21.93;19.00;;;22.80;99.90;;;;;;5137496;27;20483;-67
2022/06/20 07:36:44;;;;;;;19.50;17.40;;;22.70;99.90;;;;;;5137813;27;20478;-67
2022/06/20 07:39:19;;;;;;;21.60;18.77;;;22.70;99.90;;;;;;5137756;27;20492;-67
2022/06/20 07:41:50;;;;;;;18.70;16.90;;;22.60;99.90;;;;;;5137709;27;20493;-67
2022/06/20 07:44:23;;;;;;;17.97;15.67;;;22.50;99.90;;;;;;5137499;27;20450;-67
2022/06/20 07:46:56;;;;;;;21.23;17.53;;;22.70;99.90;;;;;;5138182;27;20449;-67
2022/06/20 07:49:30;;;;;;;19.00;16.00;;;23.00;99.90;;;;;;5137606;27;20447;-67
2022/06/20 07:52:01;;;;;;;15.47;13.90;;;23.40;99.90;;;;;;5137186;27;20579;-67
2022/06/20 07:54:33;;;;;;;14.13;12.70;;;23.90;99.90;;;;;;5137292;27;20484;-67
2022/06/20 07:57:05;;;;;;;15.10;13.50;;;24.60;99.90;;;;;;5137387;27;20545;-67
2022/06/20 07:59:37;;;;;;;13.37;11.97;;;25.10;99.90;;;;;;5137361;27;20799;-67
2022/06/20 08:02:08;;;;;;;11.47;10.37;;;25.40;99.90;;;;;;5137117;27;20498;-68
2022/06/20 08:04:37;;;;;;;12.07;10.63;;;25.60;99.90;;;;;;5137210;27;20478;-67
2022/06/20 08:07:09;;;;;;;12.20;11.10;;;26.30;99.90;;;;;;5137178;27;20444;-67
2022/06/20 08:09:43;;;;;;;14.70;13.20;;;26.60;99.90;;;;;;5137445;27;20470;-67
2022/06/20 08:12:22;;;;;;;14.43;13.03;;;26.10;99.90;;;;;;5136565;27;20573;-67
2022/06/20 08:14:55;;;;;;;15.17;12.73;;;25.30;99.90;;;;;;5137042;27;20449;-67
2022/06/20 08:17:23;;;;;;;13.30;12.00;;;24.90;99.90;;;;;;5137238;27;20470;-67
2022/06/20 08:19:51;;;;;;;15.47;13.87;;;24.70;99.90;;;;;;5136932;27;20496;-67
2022/06/20 08:22:23;;;;;;;14.37;13.07;;;24.50;99.90;;;;;;5136738;27;20496;-67
2022/06/20 08:24:56;;;;;;;14.13;12.70;;;24.20;99.90;;;;;;5136760;27;20474;-67
2022/06/20 08:27:33;;;;;;;13.37;12.10;;;24.30;99.90;;;;;;5136730;27;20473;-67
2022/06/20 08:30:07;;;;;;;14.87;12.17;;;24.90;99.90;;;;;;5136793;27;20469;-67
2022/06/20 08:32:40;;;;;;;11.80;10.70;;;24.80;99.90;;;;;;5136525;27;20483;-67
2022/06/20 08:35:18;;;;;;;10.83;9.87;;;25.00;99.90;;;;;;5136740;27;20438;-67
2022/06/20 08:37:50;;;;;;;11.37;10.17;;;25.60;99.90;;;;;;5136589;27;20466;-67
2022/06/20 08:40:44;;;;;;;11.63;9.70;;;25.90;99.90;;;;;;5136691;27;20457;-67
2022/06/20 08:43:36;;;;;;;11.50;10.10;;;26.60;99.90;;;;;;5136486;27;20455;-67
2022/06/20 08:46:25;;;;;;;10.70;9.70;;;26.80;99.90;;;;;;5136413;27;20521;-67
2022/06/20 08:49:39;;;;;;;10.67;9.57;;;26.80;99.90;;;;;;5136249;27;20484;-68
2022/06/20 08:52:49;;;;;;;11.17;9.53;;;28.40;97.60;;;;;;5135932;27;20517;-68
2022/06/20 08:55:58;;;;;;;14.00;10.13;;;29.10;94.20;;;;;;5136297;27;20462;-67
2022/06/20 08:58:37;;;;;;;11.90;10.10;;;29.50;92.60;;;;;;5136136;27;20438;-67
2022/06/20 09:01:12;;;;;;;10.47;9.60;;;29.40;94.80;;;;;;5135859;27;20955;-68
2022/06/20 09:04:17;;;;;;;9.97;9.10;;;30.20;90.30;;;;;;5136195;27;20432;-67
2022/06/20 09:07:21;;;;;;;10.70;9.60;;;30.60;87.30;;;;;;5132402;27;20444;-68
2022/06/20 09:10:31;;;;;;;11.07;9.80;;;30.70;84.60;;;;;;5135817;27;20442;-68
2022/06/20 09:13:38;;;;;;;9.47;8.73;;;31.90;81.30;;;;;;5135355;27;21013;-68
2022/06/20 09:16:16;;;;;;;11.60;10.60;;;32.70;77.10;;;;;;5135905;27;20544;-68
2022/06/20 09:18:56;;;;;;;10.40;9.03;;;34.50;69.30;;;;;;5135825;27;20525;-68
2022/06/20 09:21:30;;;;;;;10.70;9.70;;;36.10;65.20;;;;;;5135642;27;21082;-68
2022/06/20 09:24:10;;;;;;;9.83;8.67;;;37.20;58.60;;;;;;5135580;27;20453;-68
2022/06/20 09:26:44;;;;;;;10.43;9.60;;;37.00;54.00;;;;;;5135473;27;20872;-68
2022/06/20 09:29:27;;;;;;;9.37;8.57;;;36.30;57.70;;;;;;5135591;27;20516;-68
2022/06/20 09:32:27;;;;;;;10.90;10.03;;;36.50;58.70;;;;;;5135288;27;20488;-68
2022/06/20 09:35:17;;;;;;;10.93;9.93;;;36.60;55.70;;;;;;5119315;27;20482;-68
2022/06/20 09:38:24;;;;;;;11.10;10.10;;;35.00;55.70;;;;;;5135440;27;20480;-68
2022/06/20 09:40:56;;;;;;;10.53;9.53;;;34.40;59.30;;;;;;5135331;27;20470;-67
2022/06/20 09:43:35;;;;;;;10.87;10.07;;;34.30;56.90;;;;;;5134904;27;20520;-67
2022/06/20 09:46:14;;;;;;;10.63;9.70;;;33.60;58.90;;;;;;5135317;27;20529;-68
2022/06/20 09:48:48;;;;;;;10.30;9.23;;;33.40;66.70;;;;;;5135200;27;20473;-68
2022/06/20 09:51:22;;;;;;;11.83;10.83;;;34.50;62.60;;;;;;5135079;27;20494;-68
2022/06/20 09:54:03;;;;;;;10.90;9.93;;;35.10;56.90;;;;;;5134668;27;20561;-68
2022/06/20 09:56:41;;;;;;;10.87;9.90;;;35.00;57.50;;;;;;5135041;27;20437;-68
2022/06/20 09:59:18;;;;;;;9.30;8.60;;;33.50;61.40;;;;;;5135050;27;20442;-68
2022/06/20 10:01:51;;;;;;;10.90;9.80;;;32.60;61.60;;;;;;5135109;27;20493;-67
2022/06/20 10:04:38;;;;;;;9.70;8.90;;;31.80;63.70;;;;;;5134883;27;20465;-68
2022/06/20 10:07:26;;;;;;;9.43;8.53;;;32.10;67.30;;;;;;5134955;27;20480;-68
2022/06/20 10:10:03;;;;;;;10.33;9.40;;;31.90;65.20;;;;;;5134934;27;20478;-68
2022/06/20 10:12:40;;;;;;;12.40;11.23;;;31.50;65.00;;;;;;5134387;27;20979;-68
2022/06/20 10:15:19;;;;;;;10.10;9.30;;;32.30;67.50;;;;;;5134905;27;20920;-67
2022/06/20 10:17:57;;;;;;;9.53;8.67;;;33.30;61.40;;;;;;5134771;27;20466;-68
2022/06/20 10:20:35;;;;;;;10.53;9.63;;;34.10;59.00;;;;;;5134744;27;20446;-68
2022/06/20 10:23:16;;;;;;;9.23;8.50;;;34.30;57.60;;;;;;5133733;27;20458;-68
2022/06/20 10:26:14;;;;;;;10.00;9.00;;;33.40;59.10;;;;;;5134657;27;20454;-68
2022/06/20 10:28:47;;;;;;;9.50;8.70;;;33.00;59.60;;;;;;5134640;27;20829;-68
2022/06/20 10:31:35;;;;;;;10.20;9.40;;;32.60;61.50;;;;;;5134388;27;21003;-67
2022/06/20 10:34:10;;;;;;;10.17;9.10;;;31.60;64.20;;;;;;5134306;27;20571;-68
2022/06/20 10:36:48;;;;;;;9.47;8.70;;;31.50;69.20;;;;;;5134583;27;20429;-68
2022/06/20 10:39:25;;;;;;;10.40;9.40;;;31.10;67.50;;;;;;5134821;27;20445;-68
2022/06/20 10:42:02;;;;;;;9.90;8.97;;;31.00;69.00;;;;;;5134883;27;20469;-67
2022/06/20 10:44:40;;;;;;;9.57;8.87;;;30.70;68.20;;;;;;5134457;27;20438;-67
2022/06/20 10:47:17;;;;;;;10.00;9.00;;;30.50;69.40;;;;;;5134459;27;20478;-68
2022/06/20 10:50:09;;;;;;;8.97;8.27;;;30.20;71.30;;;;;;5134259;27;20485;-67
2022/06/20 10:52:54;;;;;;;10.10;9.17;;;29.40;71.90;;;;;;5133816;27;20518;-67
2022/06/20 10:55:31;;;;;;;9.27;8.30;;;28.80;74.80;;;;;;5134861;27;20854;-68
2022/06/20 10:58:08;;;;;;;9.80;8.97;;;28.60;75.30;;;;;;5134587;27;21025;-67
2022/06/20 11:00:42;;;;;;;7.50;6.90;;;28.40;79.10;;;;;;5134276;27;20926;-67
2022/06/20 11:03:37;;;;;;;7.03;6.50;;;28.30;72.50;;;;;;5133980;27;20467;-68
2022/06/20 11:06:16;;;;;;;7.37;6.77;;;28.30;71.90;;;;;;5134122;27;20792;-67
2022/06/20 11:08:53;;;;;;;8.10;7.30;;;28.20;72.10;;;;;;5134523;27;20504;-67
2022/06/20 11:11:35;;;;;;;7.93;7.13;;;28.40;75.40;;;;;;5134243;27;20460;-67
2022/06/20 11:14:11;;;;;;;9.03;8.43;;;28.60;73.00;;;;;;5134061;27;20602;-68
2022/06/20 11:16:47;;;;;;;10.10;8.37;;;28.70;75.30;;;;;;5134008;27;20440;-67
2022/06/20 11:19:25;;;;;;;12.93;11.10;;;28.40;74.70;;;;;;5134315;27;20941;-67
2022/06/20 11:22:06;;;;;;;10.03;9.03;;;28.00;78.10;;;;;;5133859;27;20491;-67
2022/06/20 11:24:46;;;;;;;9.93;9.03;;;27.80;77.40;;;;;;5134246;27;20449;-67
2022/06/20 11:27:29;;;;;;;10.57;9.57;;;27.70;79.20;;;;;;5134147;27;20466;-67
2022/06/20 11:30:08;;;;;;;9.60;8.80;;;27.50;81.60;;;;;;5134132;27;20869;-67
2022/06/20 11:32:41;;;;;;;10.40;9.20;;;27.40;82.50;;;;;;5133884;27;21052;-67
2022/06/20 11:35:17;;;;;;;10.63;9.53;;;27.10;82.90;;;;;;5137595;27;20430;-67
2022/06/20 11:38:10;;;;;;;9.33;8.50;;;26.80;83.80;;;;;;5137857;27;20942;-67
2022/06/20 11:40:50;;;;;;;9.53;8.73;;;26.70;84.70;;;;;;5137764;27;20444;-67
2022/06/20 11:43:37;;;;;;;10.50;9.60;;;26.50;84.40;;;;;;5137329;27;20418;-67
2022/06/20 11:46:28;;;;;;;10.40;9.50;;;26.50;87.50;;;;;;5137741;27;20434;-67
2022/06/20 11:49:11;;;;;;;9.87;8.97;;;26.80;86.60;;;;;;5117102;27;20445;-67
2022/06/20 11:51:48;;;;;;;9.83;9.03;;;27.00;87.50;;;;;;5137363;27;20480;-66
2022/06/20 11:54:25;;;;;;;8.97;8.17;;;27.00;85.10;;;;;;5136909;27;20516;-67
2022/06/20 11:56:58;;;;;;;18.10;15.47;;;26.80;86.30;;;;;;5137466;27;20846;-67
2022/06/20 11:59:34;;;;;;;11.50;9.47;;;26.70;89.40;;;;;;5137405;27;20466;-67
2022/06/20 12:02:13;;;;;;;9.63;8.67;;;26.90;88.00;;;;;;5137306;27;20486;-67
2022/06/20 12:04:46;;;;;;;10.10;8.60;;;26.70;87.00;;;;;;5137284;27;20437;-67
2022/06/20 12:07:21;;;;;;;9.37;8.53;;;26.60;87.90;;;;;;5137276;27;20479;-67
2022/06/20 12:09:56;;;;;;;9.47;8.40;;;26.60;89.30;;;;;;5137193;27;20489;-67
2022/06/20 12:12:38;;;;;;;8.33;7.63;;;27.00;90.20;;;;;;5136571;27;20512;-68
2022/06/20 12:15:29;;;;;;;8.73;8.00;;;27.20;88.60;;;;;;5137104;27;20473;-67
2022/06/20 12:18:11;;;;;;;8.93;8.10;;;27.30;86.70;;;;;;5137060;27;20842;-67
2022/06/20 12:23:29;;;;;;;6.87;6.27;;;27.00;86.00;;;;;;5136778;27;20416;-67
2022/06/20 12:26:01;;;;;;;5.80;5.30;;;26.70;86.70;;;;;;5136893;27;20474;-67
2022/06/20 12:28:33;;;;;;;4.83;4.43;;;26.60;83.30;;;;;;5136769;27;20445;-67
2022/06/20 12:31:11;;;;;;;6.10;5.60;;;26.40;84.10;;;;;;5136650;27;20470;-68
2022/06/20 12:33:41;;;;;;;7.43;6.83;;;26.30;84.10;;;;;;5136532;27;20478;-67
2022/06/20 12:36:17;;;;;;;6.63;5.90;;;26.40;86.80;;;;;;5136686;27;20477;-67
2022/06/20 12:38:50;;;;;;;8.30;7.37;;;26.30;87.30;;;;;;5136526;27;20969;-67
2022/06/20 12:41:22;;;;;;;11.10;8.97;;;26.60;89.30;;;;;;5136524;27;20530;-67
2022/06/20 12:43:55;;;;;;;9.70;8.70;;;26.90;90.10;;;;;;5136174;27;20788;-67
2022/06/20 12:46:42;;;;;;;10.17;8.90;;;26.90;90.20;;;;;;5135713;27;20430;-67
2022/06/20 12:49:26;;;;;;;9.17;8.33;;;26.80;90.30;;;;;;5136467;27;20438;-67
2022/06/20 12:51:58;;;;;;;9.53;8.70;;;26.30;90.60;;;;;;5136290;27;20511;-67
2022/06/20 12:54:55;;;;;;;10.07;9.00;;;25.90;91.80;;;;;;5135813;27;20509;-67
2022/06/20 12:57:44;;;;;;;10.70;9.43;;;25.60;92.20;;;;;;5136470;27;20477;-67
2022/06/20 13:00:32;;;;;;;10.07;9.07;;;25.20;93.40;;;;;;5136192;27;20942;-67
2022/06/20 13:03:36;;;;;;;10.07;9.17;;;25.00;94.50;;;;;;5135992;27;20861;-67
2022/06/20 13:06:24;;;;;;;10.27;9.37;;;24.80;95.00;;;;;;5135996;27;20946;-67
2022/06/20 13:09:02;;;;;;;11.00;9.43;;;25.00;95.00;;;;;;5136443;27;20477;-67
2022/06/20 13:11:36;;;;;;;10.60;8.50;;;25.20;96.00;;;;;;5136056;27;20462;-67
2022/06/20 13:14:28;;;;;;;11.00;8.53;;;25.50;95.40;;;;;;5135594;27;20913;-68
2022/06/20 13:17:08;;;;;;;11.10;10.13;;;25.60;94.20;;;;;;5135768;27;20474;-68
2022/06/20 13:19:47;;;;;;;11.30;9.00;;;25.40;94.20;;;;;;5136090;27;20477;-68
2022/06/20 13:22:23;;;;;;;11.27;10.27;;;25.20;95.20;;;;;;5135683;27;20501;-68
2022/06/20 13:25:04;;;;;;;11.40;10.20;;;25.00;95.30;;;;;;5135669;27;20485;-68